sensor_id;sensor_type;location;lat;lon;timestamp;pressure;altitude;pressure_sealevel;temperature;humidity
51417;BME280;50158;51.528;6.982;2022-08-03T00:00:48;68410;;;18.74;100
51417;BME280;50158;51.528;6.982;2022-08-03T00:03:16;68400;;;18.66;100
51417;BME280;50158;51.528;6.982;2022-08-03T00:05:45;68400;;;18.64;100
51417;BME280;50158;51.528;6.982;2022-08-03T00:08:13;68420;;;18.81;100
51417;BME280;50158;51.528;6.982;2022-08-03T00:10:41;68430;;;18.87;100
51417;BME280;50158;51.528;6.982;2022-08-03T00:13:10;68430;;;18.87;100
51417;BME280;50158;51.528;6.982;2022-08-03T00:15:39;68430;;;18.87;100
51417;BME280;50158;51.528;6.982;2022-08-03T00:18:06;68420;;;18.78;100
51417;BME280;50158;51.528;6.982;2022-08-03T00:20:34;68410;;;18.69;100
51417;BME280;50158;51.528;6.982;2022-08-03T00:23:03;68400;;;18.68;100
51417;BME280;50158;51.528;6.982;2022-08-03T00:25:32;68400;;;18.67;100
51417;BME280;50158;51.528;6.982;2022-08-03T00:27:59;68400;;;18.69;100
51417;BME280;50158;51.528;6.982;2022-08-03T00:30:28;68390;;;18.58;100
51417;BME280;50158;51.528;6.982;2022-08-03T00:32:56;68380;;;18.5;100
51417;BME280;50158;51.528;6.982;2022-08-03T00:35:24;68380;;;18.49;100
51417;BME280;50158;51.528;6.982;2022-08-03T00:37:52;68380;;;18.41;100
51417;BME280;50158;51.528;6.982;2022-08-03T00:40:22;68380;;;18.45;100
51417;BME280;50158;51.528;6.982;2022-08-03T00:42:51;68370;;;18.37;100
51417;BME280;50158;51.528;6.982;2022-08-03T00:45:17;68380;;;18.42;100
51417;BME280;50158;51.528;6.982;2022-08-03T00:47:45;68380;;;18.44;100
51417;BME280;50158;51.528;6.982;2022-08-03T00:50:14;68370;;;18.39;100
51417;BME280;50158;51.528;6.982;2022-08-03T00:54:38;68380;;;18.48;100
51417;BME280;50158;51.528;6.982;2022-08-03T00:57:06;68370;;;18.33;100
51417;BME280;50158;51.528;6.982;2022-08-03T00:59:34;68360;;;18.27;100
51417;BME280;50158;51.528;6.982;2022-08-03T01:02:02;68350;;;18.2;100
51417;BME280;50158;51.528;6.982;2022-08-03T01:04:31;68340;;;18.14;100
51417;BME280;50158;51.528;6.982;2022-08-03T01:09:45;68340;;;18.07;100
51417;BME280;50158;51.528;6.982;2022-08-03T01:11:59;68340;;;18.06;100
51417;BME280;50158;51.528;6.982;2022-08-03T01:14:26;68330;;;18.02;100
51417;BME280;50158;51.528;6.982;2022-08-03T01:16:56;68330;;;18.04;100
51417;BME280;50158;51.528;6.982;2022-08-03T01:19:28;68330;;;18.03;100
51417;BME280;50158;51.528;6.982;2022-08-03T01:21:58;68340;;;18.06;100
51417;BME280;50158;51.528;6.982;2022-08-03T01:24:32;68330;;;18.02;100
51417;BME280;50158;51.528;6.982;2022-08-03T01:27:02;68340;;;18.12;100
51417;BME280;50158;51.528;6.982;2022-08-03T01:29:49;68340;;;18.08;100
51417;BME280;50158;51.528;6.982;2022-08-03T01:31:43;68330;;;18;100
51417;BME280;50158;51.528;6.982;2022-08-03T01:34:11;68320;;;17.94;100
51417;BME280;50158;51.528;6.982;2022-08-03T01:36:39;68330;;;17.98;100
51417;BME280;50158;51.528;6.982;2022-08-03T01:39:06;68320;;;17.87;100
51417;BME280;50158;51.528;6.982;2022-08-03T01:41:36;68320;;;17.91;100
51417;BME280;50158;51.528;6.982;2022-08-03T01:44:04;68310;;;17.83;100
51417;BME280;50158;51.528;6.982;2022-08-03T01:46:31;68310;;;17.82;100
51417;BME280;50158;51.528;6.982;2022-08-03T01:49:00;68300;;;17.77;100
51417;BME280;50158;51.528;6.982;2022-08-03T01:51:28;68310;;;17.78;100
51417;BME280;50158;51.528;6.982;2022-08-03T01:53:56;68300;;;17.75;100
51417;BME280;50158;51.528;6.982;2022-08-03T01:56:24;68300;;;17.7;100
51417;BME280;50158;51.528;6.982;2022-08-03T02:00:48;68290;;;17.61;100
51417;BME280;50158;51.528;6.982;2022-08-03T02:03:16;68280;;;17.58;100
51417;BME280;50158;51.528;6.982;2022-08-03T02:05:45;68280;;;17.54;100
51417;BME280;50158;51.528;6.982;2022-08-03T02:08:13;68280;;;17.51;100
51417;BME280;50158;51.528;6.982;2022-08-03T02:10:41;68280;;;17.54;100
51417;BME280;50158;51.528;6.982;2022-08-03T02:13:10;68280;;;17.58;100
51417;BME280;50158;51.528;6.982;2022-08-03T02:15:38;68280;;;17.56;100
51417;BME280;50158;51.528;6.982;2022-08-03T02:18:06;68280;;;17.5;100
51417;BME280;50158;51.528;6.982;2022-08-03T02:20:34;68280;;;17.53;100
51417;BME280;50158;51.528;6.982;2022-08-03T02:23:03;68280;;;17.5;100
51417;BME280;50158;51.528;6.982;2022-08-03T02:25:32;68270;;;17.42;100
51417;BME280;50158;51.528;6.982;2022-08-03T02:28:01;68270;;;17.42;100
51417;BME280;50158;51.528;6.982;2022-08-03T02:30:29;68270;;;17.41;100
51417;BME280;50158;51.528;6.982;2022-08-03T02:32:56;68260;;;17.37;100
51417;BME280;50158;51.528;6.982;2022-08-03T02:35:25;68260;;;17.37;100
51417;BME280;50158;51.528;6.982;2022-08-03T02:37:55;68260;;;17.4;100
51417;BME280;50158;51.528;6.982;2022-08-03T02:40:21;68260;;;17.35;100
51417;BME280;50158;51.528;6.982;2022-08-03T02:45:17;68260;;;17.35;100
51417;BME280;50158;51.528;6.982;2022-08-03T02:47:45;68260;;;17.32;100
51417;BME280;50158;51.528;6.982;2022-08-03T02:50:14;68250;;;17.28;100
51417;BME280;50158;51.528;6.982;2022-08-03T02:52:42;68260;;;17.34;100
51417;BME280;50158;51.528;6.982;2022-08-03T02:55:10;68260;;;17.34;100
51417;BME280;50158;51.528;6.982;2022-08-03T02:57:38;68250;;;17.29;100
51417;BME280;50158;51.528;6.982;2022-08-03T03:02:02;68250;;;17.31;100
51417;BME280;50158;51.528;6.982;2022-08-03T03:04:31;68260;;;17.32;100
51417;BME280;50158;51.528;6.982;2022-08-03T03:06:59;68250;;;17.28;100
51417;BME280;50158;51.528;6.982;2022-08-03T03:09:27;68250;;;17.27;100
51417;BME280;50158;51.528;6.982;2022-08-03T03:11:55;68250;;;17.24;100
51417;BME280;50158;51.528;6.982;2022-08-03T03:14:24;68250;;;17.25;100
51417;BME280;50158;51.528;6.982;2022-08-03T03:16:52;68250;;;17.27;100
51417;BME280;50158;51.528;6.982;2022-08-03T03:19:20;68250;;;17.27;100
51417;BME280;50158;51.528;6.982;2022-08-03T03:21:48;68250;;;17.27;100
51417;BME280;50158;51.528;6.982;2022-08-03T03:24:17;68240;;;17.16;100
51417;BME280;50158;51.528;6.982;2022-08-03T03:26:45;68240;;;17.18;100
51417;BME280;50158;51.528;6.982;2022-08-03T03:29:14;68240;;;17.14;100
51417;BME280;50158;51.528;6.982;2022-08-03T03:31:42;68230;;;17.07;100
51417;BME280;50158;51.528;6.982;2022-08-03T03:34:10;68230;;;17.04;100
51417;BME280;50158;51.528;6.982;2022-08-03T03:36:38;68230;;;17.06;100
51417;BME280;50158;51.528;6.982;2022-08-03T03:39:06;68240;;;17.15;100
51417;BME280;50158;51.528;6.982;2022-08-03T03:41:35;68230;;;17.12;100
51417;BME280;50158;51.528;6.982;2022-08-03T03:44:03;68230;;;17.04;100
51417;BME280;50158;51.528;6.982;2022-08-03T03:46:31;68220;;;17.03;100
51417;BME280;50158;51.528;6.982;2022-08-03T03:49:00;68220;;;17.03;100
51417;BME280;50158;51.528;6.982;2022-08-03T03:51:28;68220;;;17.02;100
51417;BME280;50158;51.528;6.982;2022-08-03T03:53:57;68220;;;17.01;100
51417;BME280;50158;51.528;6.982;2022-08-03T03:58:20;68220;;;16.96;100
51417;BME280;50158;51.528;6.982;2022-08-03T04:00:48;68220;;;16.96;100
51417;BME280;50158;51.528;6.982;2022-08-03T04:03:16;68220;;;16.96;100
51417;BME280;50158;51.528;6.982;2022-08-03T04:05:45;68220;;;17.01;100
51417;BME280;50158;51.528;6.982;2022-08-03T04:08:14;68230;;;17.04;100
51417;BME280;50158;51.528;6.982;2022-08-03T04:13:09;68220;;;16.99;100
51417;BME280;50158;51.528;6.982;2022-08-03T04:15:38;68220;;;16.98;100
51417;BME280;50158;51.528;6.982;2022-08-03T04:18:08;68230;;;17.1;100
51417;BME280;50158;51.528;6.982;2022-08-03T04:20:35;68230;;;17.08;100
51417;BME280;50158;51.528;6.982;2022-08-03T04:23:03;68230;;;17.09;100
51417;BME280;50158;51.528;6.982;2022-08-03T04:25:32;68230;;;17.04;100
51417;BME280;50158;51.528;6.982;2022-08-03T04:30:44;68230;;;17.06;100
51417;BME280;50158;51.528;6.982;2022-08-03T04:33:12;68230;;;17.12;100
51417;BME280;50158;51.528;6.982;2022-08-03T04:35:40;68230;;;17.12;100
51417;BME280;50158;51.528;6.982;2022-08-03T04:38:09;68240;;;17.16;100
51417;BME280;50158;51.528;6.982;2022-08-03T04:40:38;68240;;;17.19;100
51417;BME280;50158;51.528;6.982;2022-08-03T04:43:06;68240;;;17.2;100
51417;BME280;50158;51.528;6.982;2022-08-03T04:45:34;68240;;;17.23;100
51417;BME280;50158;51.528;6.982;2022-08-03T04:48:02;68250;;;17.31;100
51417;BME280;50158;51.528;6.982;2022-08-03T04:52:58;68260;;;17.34;100
51417;BME280;50158;51.528;6.982;2022-08-03T04:55:28;68270;;;17.41;100
51417;BME280;50158;51.528;6.982;2022-08-03T04:57:55;68270;;;17.43;100
51417;BME280;50158;51.528;6.982;2022-08-03T05:00:23;68280;;;17.51;100
51417;BME280;50158;51.528;6.982;2022-08-03T05:04:47;68280;;;17.53;100
51417;BME280;50158;51.528;6.982;2022-08-03T05:07:16;68290;;;17.59;100
51417;BME280;50158;51.528;6.982;2022-08-03T05:09:44;68290;;;17.6;100
51417;BME280;50158;51.528;6.982;2022-08-03T05:12:12;68290;;;17.68;100
51417;BME280;50158;51.528;6.982;2022-08-03T05:14:40;68300;;;17.77;100
51417;BME280;50158;51.528;6.982;2022-08-03T05:17:08;68310;;;17.82;100
51417;BME280;50158;51.528;6.982;2022-08-03T05:19:37;68320;;;17.89;100
51417;BME280;50158;51.528;6.982;2022-08-03T05:22:05;68330;;;17.99;100
51417;BME280;50158;51.528;6.982;2022-08-03T05:24:33;68340;;;18.12;100
51417;BME280;50158;51.528;6.982;2022-08-03T05:27:01;68360;;;18.31;100
51417;BME280;50158;51.528;6.982;2022-08-03T05:29:30;68380;;;18.43;100
51417;BME280;50158;51.528;6.982;2022-08-03T05:31:58;68390;;;18.59;100
51417;BME280;50158;51.528;6.982;2022-08-03T05:34:27;68440;;;18.98;100
51417;BME280;50158;51.528;6.982;2022-08-03T05:36:55;68450;;;19.14;100
51417;BME280;50158;51.528;6.982;2022-08-03T05:39:23;68510;;;19.67;100
51417;BME280;50158;51.528;6.982;2022-08-03T05:41:51;68540;;;19.95;100
51417;BME280;50158;51.528;6.982;2022-08-03T05:44:19;68550;;;19.98;100
51417;BME280;50158;51.528;6.982;2022-08-03T05:46:48;68560;;;20.16;100
51417;BME280;50158;51.528;6.982;2022-08-03T05:49:16;68580;;;20.29;100
51417;BME280;50158;51.528;6.982;2022-08-03T05:51:44;68590;;;20.37;100
51417;BME280;50158;51.528;6.982;2022-08-03T05:54:12;68610;;;20.6;100
51417;BME280;50158;51.528;6.982;2022-08-03T05:56:41;68630;;;20.8;100
51417;BME280;50158;51.528;6.982;2022-08-03T06:01:05;68680;;;21.19;100
51417;BME280;50158;51.528;6.982;2022-08-03T06:03:33;68670;;;21.11;100
51417;BME280;50158;51.528;6.982;2022-08-03T06:06:01;68680;;;21.2;100
51417;BME280;50158;51.528;6.982;2022-08-03T06:08:29;68690;;;21.31;100
51417;BME280;50158;51.528;6.982;2022-08-03T06:10:58;68700;;;21.37;100
51417;BME280;50158;51.528;6.982;2022-08-03T06:13:26;68720;;;21.58;100
51417;BME280;50158;51.528;6.982;2022-08-03T06:15:54;68710;;;21.5;100
51417;BME280;50158;51.528;6.982;2022-08-03T06:18:22;68750;;;21.84;100
51417;BME280;50158;51.528;6.982;2022-08-03T06:20:51;68750;;;21.87;100
51417;BME280;50158;51.528;6.982;2022-08-03T06:23:19;68770;;;22.02;100
51417;BME280;50158;51.528;6.982;2022-08-03T06:25:47;68770;;;22.08;100
51417;BME280;50158;51.528;6.982;2022-08-03T06:28:16;68780;;;22.13;100
51417;BME280;50158;51.528;6.982;2022-08-03T06:30:44;68790;;;22.2;99.94
51417;BME280;50158;51.528;6.982;2022-08-03T06:33:12;68800;;;22.3;99.08
51417;BME280;50158;51.528;6.982;2022-08-03T06:35:40;68820;;;22.56;96.89
51417;BME280;50158;51.528;6.982;2022-08-03T06:38:09;68830;;;22.59;96.92
51417;BME280;50158;51.528;6.982;2022-08-03T06:40:37;68840;;;22.65;96.14
51417;BME280;50158;51.528;6.982;2022-08-03T06:43:05;68860;;;22.9;94.92
51417;BME280;50158;51.528;6.982;2022-08-03T06:45:34;68870;;;22.99;94.12
51417;BME280;50158;51.528;6.982;2022-08-03T06:48:04;68890;;;23.2;92.55
51417;BME280;50158;51.528;6.982;2022-08-03T06:50:30;68910;;;23.3;91.99
51417;BME280;50158;51.528;6.982;2022-08-03T06:55:27;68920;;;23.44;90.61
51417;BME280;50158;51.528;6.982;2022-08-03T07:02:51;68950;;;23.72;88.3
51417;BME280;50158;51.528;6.982;2022-08-03T07:05:20;68960;;;23.78;88.84
51417;BME280;50158;51.528;6.982;2022-08-03T07:07:48;68960;;;23.77;88.71
51417;BME280;50158;51.528;6.982;2022-08-03T07:10:16;68960;;;23.79;88.59
51417;BME280;50158;51.528;6.982;2022-08-03T07:17:41;68970;;;23.91;88.33
51417;BME280;50158;51.528;6.982;2022-08-03T07:22:38;68990;;;24.1;87.1
51417;BME280;50158;51.528;6.982;2022-08-03T07:25:06;69000;;;24.12;86.16
51417;BME280;50158;51.528;6.982;2022-08-03T07:30:04;69000;;;24.19;87.13
51417;BME280;50158;51.528;6.982;2022-08-03T07:34:59;69020;;;24.37;85.61
51417;BME280;50158;51.528;6.982;2022-08-03T07:37:28;69030;;;24.45;85.6
51417;BME280;50158;51.528;6.982;2022-08-03T07:42:24;69050;;;24.62;83.58
51417;BME280;50158;51.528;6.982;2022-08-03T07:47:22;69070;;;24.76;82.8
51417;BME280;50158;51.528;6.982;2022-08-03T07:52:17;69090;;;25.03;82.47
51417;BME280;50158;51.528;6.982;2022-08-03T07:57:14;69100;;;25.09;81.18
51417;BME280;50158;51.528;6.982;2022-08-03T08:02:10;69130;;;25.32;80.81
51417;BME280;50158;51.528;6.982;2022-08-03T08:07:07;69140;;;25.49;79.11
51417;BME280;50158;51.528;6.982;2022-08-03T08:12:03;69180;;;25.78;78.33
51417;BME280;50158;51.528;6.982;2022-08-03T08:18:22;69200;;;26;75.41
51417;BME280;50158;51.528;6.982;2022-08-03T08:25:48;69160;;;25.67;75.76
51417;BME280;50158;51.528;6.982;2022-08-03T08:28:16;69190;;;25.92;74.11
51417;BME280;50158;51.528;6.982;2022-08-03T08:30:44;69190;;;25.93;74.72
51417;BME280;50158;51.528;6.982;2022-08-03T08:33:12;69190;;;25.9;76.11
51417;BME280;50158;51.528;6.982;2022-08-03T08:35:40;69200;;;26.04;75
51417;BME280;50158;51.528;6.982;2022-08-03T08:38:09;69220;;;26.19;74.98
51417;BME280;50158;51.528;6.982;2022-08-03T08:40:37;69240;;;26.33;73.51
51417;BME280;50158;51.528;6.982;2022-08-03T08:43:06;69250;;;26.45;73.34
51417;BME280;50158;51.528;6.982;2022-08-03T08:45:34;69230;;;26.27;73.4
51417;BME280;50158;51.528;6.982;2022-08-03T08:48:02;69250;;;26.46;73.34
51417;BME280;50158;51.528;6.982;2022-08-03T08:50:30;69260;;;26.53;72.36
51417;BME280;50158;51.528;6.982;2022-08-03T08:52:59;69270;;;26.61;70.81
51417;BME280;50158;51.528;6.982;2022-08-03T08:55:27;69280;;;26.71;70.63
51417;BME280;50158;51.528;6.982;2022-08-03T08:57:56;69270;;;26.6;70.79
51417;BME280;50158;51.528;6.982;2022-08-03T09:00:23;69260;;;26.56;71.41
51417;BME280;50158;51.528;6.982;2022-08-03T09:02:52;69280;;;26.68;72.44
51417;BME280;50158;51.528;6.982;2022-08-03T09:05:20;69300;;;26.93;70.96
51417;BME280;50158;51.528;6.982;2022-08-03T09:07:48;69300;;;26.89;69.72
51417;BME280;50158;51.528;6.982;2022-08-03T09:10:16;69320;;;27.07;69.47
51417;BME280;50158;51.528;6.982;2022-08-03T09:12:45;69330;;;27.16;68.12
51417;BME280;50158;51.528;6.982;2022-08-03T09:15:29;69340;;;27.28;68.25
51417;BME280;50158;51.528;6.982;2022-08-03T09:17:41;69350;;;27.34;67.42
51417;BME280;50158;51.528;6.982;2022-08-03T09:22:21;69370;;;27.58;64.84
51417;BME280;50158;51.528;6.982;2022-08-03T09:27:18;69400;;;27.85;63.25
51417;BME280;50158;51.528;6.982;2022-08-03T09:32:31;69410;;;27.93;61.79
51417;BME280;50158;51.528;6.982;2022-08-03T09:35:02;69440;;;28.21;61.53
51417;BME280;50158;51.528;6.982;2022-08-03T09:39:56;69470;;;28.42;60.35
51417;BME280;50158;51.528;6.982;2022-08-03T09:42:24;69530;;;29;59.75
51417;BME280;50158;51.528;6.982;2022-08-03T09:44:52;69550;;;29.19;59.16
51417;BME280;50158;51.528;6.982;2022-08-03T09:47:36;69590;;;29.57;57.69
51417;BME280;50158;51.528;6.982;2022-08-03T09:50:05;69600;;;29.69;57.07
51417;BME280;50158;51.528;6.982;2022-08-03T09:52:18;69660;;;30.23;53.78
51417;BME280;50158;51.528;6.982;2022-08-03T09:54:49;69680;;;30.36;52.87
51417;BME280;50158;51.528;6.982;2022-08-03T09:59:42;69780;;;31.33;50.43
51417;BME280;50158;51.528;6.982;2022-08-03T10:04:45;69830;;;31.76;48.48
51417;BME280;50158;51.528;6.982;2022-08-03T10:07:08;69910;;;32.46;47.17
51417;BME280;50158;51.528;6.982;2022-08-03T10:09:36;69950;;;32.82;46.85
51417;BME280;50158;51.528;6.982;2022-08-03T10:12:07;69880;;;32.2;46.77
51417;BME280;50158;51.528;6.982;2022-08-03T10:14:31;69860;;;32.03;47.04
51417;BME280;50158;51.528;6.982;2022-08-03T10:21:08;69970;;;32.99;43.21
51417;BME280;50158;51.528;6.982;2022-08-03T10:26:05;69930;;;32.65;43.28
51417;BME280;50158;51.528;6.982;2022-08-03T10:31:00;70130;;;34.48;41.93
51417;BME280;50158;51.528;6.982;2022-08-03T10:35:57;70260;;;35.63;38.78
51417;BME280;50158;51.528;6.982;2022-08-03T10:40:54;70220;;;35.28;38.58
51417;BME280;50158;51.528;6.982;2022-08-03T10:45:50;70160;;;34.78;39.47
51417;BME280;50158;51.528;6.982;2022-08-03T10:48:18;70200;;;35.08;39.75
51417;BME280;50158;51.528;6.982;2022-08-03T10:53:15;70200;;;35.12;36.69
51417;BME280;50158;51.528;6.982;2022-08-03T10:58:11;70070;;;33.91;39.28
51417;BME280;50158;51.528;6.982;2022-08-03T11:03:10;70160;;;34.78;38.35
51417;BME280;50158;51.528;6.982;2022-08-03T11:08:21;70140;;;34.55;39.23
51417;BME280;50158;51.528;6.982;2022-08-03T11:10:33;70030;;;33.57;39.19
51417;BME280;50158;51.528;6.982;2022-08-03T11:15:31;70060;;;33.8;38.02
51417;BME280;50158;51.528;6.982;2022-08-03T11:21:51;69920;;;32.55;41.32
51417;BME280;50158;51.528;6.982;2022-08-03T11:26:45;69910;;;32.5;41.87
51417;BME280;50158;51.528;6.982;2022-08-03T11:31:42;69980;;;33.12;40.62
51417;BME280;50158;51.528;6.982;2022-08-03T11:34:11;70050;;;33.78;39.66
51417;BME280;50158;51.528;6.982;2022-08-03T11:39:12;70100;;;34.2;37.68
51417;BME280;50158;51.528;6.982;2022-08-03T11:41:35;70090;;;34.09;38.95
51417;BME280;50158;51.528;6.982;2022-08-03T11:44:03;70060;;;33.81;37.95
51417;BME280;50158;51.528;6.982;2022-08-03T11:46:39;70130;;;34.48;36.76
51417;BME280;50158;51.528;6.982;2022-08-03T11:49:03;70170;;;34.8;37.47
51417;BME280;50158;51.528;6.982;2022-08-03T11:51:29;70130;;;34.45;37.98
51417;BME280;50158;51.528;6.982;2022-08-03T11:53:57;70090;;;34.07;38.49
51417;BME280;50158;51.528;6.982;2022-08-03T11:56:25;70080;;;33.98;39.33
51417;BME280;50158;51.528;6.982;2022-08-03T12:01:37;70200;;;35.09;36.34
51417;BME280;50158;51.528;6.982;2022-08-03T12:04:06;70200;;;35.11;36.71
51417;BME280;50158;51.528;6.982;2022-08-03T12:06:34;70240;;;35.43;36.33
51417;BME280;50158;51.528;6.982;2022-08-03T12:09:13;70150;;;34.66;36.83
51417;BME280;50158;51.528;6.982;2022-08-03T12:11:30;70040;;;33.62;39.51
51417;BME280;50158;51.528;6.982;2022-08-03T12:13:59;70020;;;33.49;39.19
51417;BME280;50158;51.528;6.982;2022-08-03T12:16:27;70020;;;33.43;39.23
51417;BME280;50158;51.528;6.982;2022-08-03T12:20:51;70010;;;33.33;40.78
51417;BME280;50158;51.528;6.982;2022-08-03T12:23:19;70120;;;34.38;40.88
51417;BME280;50158;51.528;6.982;2022-08-03T12:25:47;70200;;;35.09;37.5
51417;BME280;50158;51.528;6.982;2022-08-03T12:28:17;70180;;;34.91;37.61
51417;BME280;50158;51.528;6.982;2022-08-03T12:30:46;70070;;;33.91;38.87
51417;BME280;50158;51.528;6.982;2022-08-03T12:33:16;70080;;;34.02;39.14
51417;BME280;50158;51.528;6.982;2022-08-03T12:35:41;70070;;;33.95;39.13
51417;BME280;50158;51.528;6.982;2022-08-03T12:38:09;69990;;;33.13;40.13
51417;BME280;50158;51.528;6.982;2022-08-03T12:40:37;70040;;;33.66;39.55
51417;BME280;50158;51.528;6.982;2022-08-03T12:43:12;70010;;;33.34;39.61
51417;BME280;50158;51.528;6.982;2022-08-03T12:45:34;70190;;;34.99;39.56
51417;BME280;50158;51.528;6.982;2022-08-03T12:48:02;70260;;;35.63;36.07
51417;BME280;50158;51.528;6.982;2022-08-03T12:50:31;70300;;;36;34.43
51417;BME280;50158;51.528;6.982;2022-08-03T12:52:59;70290;;;35.88;34.89
51417;BME280;50158;51.528;6.982;2022-08-03T12:55:27;70220;;;35.29;34.59
51417;BME280;50158;51.528;6.982;2022-08-03T12:57:55;70230;;;35.36;35.21
51417;BME280;50158;51.528;6.982;2022-08-03T13:00:23;70290;;;35.95;34.34
51417;BME280;50158;51.528;6.982;2022-08-03T13:02:59;70290;;;35.9;34.03
51417;BME280;50158;51.528;6.982;2022-08-03T13:05:20;70260;;;35.68;34.3
51417;BME280;50158;51.528;6.982;2022-08-03T13:07:48;70360;;;36.55;33.81
51417;BME280;50158;51.528;6.982;2022-08-03T13:10:32;70290;;;35.93;34.83
51417;BME280;50158;51.528;6.982;2022-08-03T13:15:13;70400;;;36.95;31.76
51417;BME280;50158;51.528;6.982;2022-08-03T13:17:41;70470;;;37.59;31.01
51417;BME280;50158;51.528;6.982;2022-08-03T13:22:22;70230;;;35.38;34.03
51417;BME280;50158;51.528;6.982;2022-08-03T13:24:51;70240;;;35.5;34.14
51417;BME280;50158;51.528;6.982;2022-08-03T13:27:18;70370;;;36.68;32.24
51417;BME280;50158;51.528;6.982;2022-08-03T13:29:46;70390;;;36.86;32.77
51417;BME280;50158;51.528;6.982;2022-08-03T13:32:14;70330;;;36.28;32.41
51417;BME280;50158;51.528;6.982;2022-08-03T13:34:43;70340;;;36.34;33.45
51417;BME280;50158;51.528;6.982;2022-08-03T13:39:40;70240;;;35.41;33.6
51417;BME280;50158;51.528;6.982;2022-08-03T13:42:08;70250;;;35.5;33.3
51417;BME280;50158;51.528;6.982;2022-08-03T13:44:36;70270;;;35.73;33.33
51417;BME280;50158;51.528;6.982;2022-08-03T13:47:04;70350;;;36.45;33.23
51417;BME280;50158;51.528;6.982;2022-08-03T13:49:32;70450;;;37.33;32.26
51417;BME280;50158;51.528;6.982;2022-08-03T13:52:01;70300;;;36.02;32.19
51417;BME280;50158;51.528;6.982;2022-08-03T13:54:29;70400;;;36.9;31.27
51417;BME280;50158;51.528;6.982;2022-08-03T13:56:57;70310;;;36.05;31.96
51417;BME280;50158;51.528;6.982;2022-08-03T13:59:26;70280;;;35.77;32.53
51417;BME280;50158;51.528;6.982;2022-08-03T14:01:54;70280;;;35.84;32.35
51417;BME280;50158;51.528;6.982;2022-08-03T14:04:22;70270;;;35.71;32.61
51417;BME280;50158;51.528;6.982;2022-08-03T14:06:50;70350;;;36.41;32.21
51417;BME280;50158;51.528;6.982;2022-08-03T14:09:19;70270;;;35.68;32.01
51417;BME280;50158;51.528;6.982;2022-08-03T14:11:47;70350;;;36.43;32
51417;BME280;50158;51.528;6.982;2022-08-03T14:14:15;70330;;;36.31;31.71
51417;BME280;50158;51.528;6.982;2022-08-03T14:16:43;70370;;;36.66;30.41
51417;BME280;50158;51.528;6.982;2022-08-03T14:19:12;70260;;;35.63;31.86
51417;BME280;50158;51.528;6.982;2022-08-03T14:23:36;70380;;;36.75;30.53
51417;BME280;50158;51.528;6.982;2022-08-03T14:26:04;70350;;;36.43;30.39
51417;BME280;50158;51.528;6.982;2022-08-03T14:31:17;70150;;;34.66;33.16
51417;BME280;50158;51.528;6.982;2022-08-03T14:33:45;70180;;;34.93;33.14
51417;BME280;50158;51.528;6.982;2022-08-03T14:36:13;70260;;;35.65;32.34
51417;BME280;50158;51.528;6.982;2022-08-03T14:38:42;70320;;;36.18;31.11
51417;BME280;50158;51.528;6.982;2022-08-03T14:41:10;70410;;;36.99;29.61
51417;BME280;50158;51.528;6.982;2022-08-03T14:46:06;70410;;;37;29.83
51417;BME280;50158;51.528;6.982;2022-08-03T14:48:35;70420;;;37.07;29.41
51417;BME280;50158;51.528;6.982;2022-08-03T14:51:03;70480;;;37.59;30.67
51417;BME280;50158;51.528;6.982;2022-08-03T14:53:32;70510;;;37.93;28.13
51417;BME280;50158;51.528;6.982;2022-08-03T14:55:59;70640;;;39.08;28.44
51417;BME280;50158;51.528;6.982;2022-08-03T14:58:28;70570;;;38.47;27.26
51417;BME280;50158;51.528;6.982;2022-08-03T15:00:56;70540;;;38.22;27.09
51417;BME280;50158;51.528;6.982;2022-08-03T15:03:24;70480;;;37.59;28.32
51417;BME280;50158;51.528;6.982;2022-08-03T15:05:53;70440;;;37.28;28.31
51417;BME280;50158;51.528;6.982;2022-08-03T15:08:22;70640;;;39.11;27.17
51417;BME280;50158;51.528;6.982;2022-08-03T15:13:18;70590;;;38.62;25.92
51417;BME280;50158;51.528;6.982;2022-08-03T15:15:46;70600;;;38.7;26.58
51417;BME280;50158;51.528;6.982;2022-08-03T15:18:14;70480;;;37.61;27.71
51417;BME280;50158;51.528;6.982;2022-08-03T15:20:42;70490;;;37.71;28.13
51417;BME280;50158;51.528;6.982;2022-08-03T15:25:06;70520;;;38;26.92
51417;BME280;50158;51.528;6.982;2022-08-03T15:27:34;70460;;;37.47;27.57
51417;BME280;50158;51.528;6.982;2022-08-03T15:30:03;70650;;;39.15;25.24
51417;BME280;50158;51.528;6.982;2022-08-03T15:32:32;70540;;;38.16;25.95
51417;BME280;50158;51.528;6.982;2022-08-03T15:34:59;70590;;;38.59;25.29
51417;BME280;50158;51.528;6.982;2022-08-03T15:37:27;70540;;;38.2;24.95
51417;BME280;50158;51.528;6.982;2022-08-03T15:39:56;70480;;;37.63;26.05
51417;BME280;50158;51.528;6.982;2022-08-03T15:42:24;70490;;;37.66;25.71
51417;BME280;50158;51.528;6.982;2022-08-03T15:47:21;70520;;;37.97;25.56
51417;BME280;50158;51.528;6.982;2022-08-03T15:49:49;70530;;;38.09;25.45
51417;BME280;50158;51.528;6.982;2022-08-03T15:52:17;70540;;;38.16;25.15
51417;BME280;50158;51.528;6.982;2022-08-03T15:54:45;70620;;;38.87;25.56
51417;BME280;50158;51.528;6.982;2022-08-03T15:57:14;70680;;;39.43;25.32
51417;BME280;50158;51.528;6.982;2022-08-03T15:59:42;70740;;;39.97;24.55
51417;BME280;50158;51.528;6.982;2022-08-03T16:02:10;70550;;;38.29;25.45
51417;BME280;50158;51.528;6.982;2022-08-03T16:04:38;70440;;;37.3;28.24
51417;BME280;50158;51.528;6.982;2022-08-03T16:07:07;70360;;;36.55;27.47
51417;BME280;50158;51.528;6.982;2022-08-03T16:09:35;70240;;;35.47;29.23
51417;BME280;50158;51.528;6.982;2022-08-03T16:14:32;70210;;;35.18;30.43
51417;BME280;50158;51.528;6.982;2022-08-03T16:17:00;70230;;;35.33;30.12
51417;BME280;50158;51.528;6.982;2022-08-03T16:19:28;70270;;;35.73;30.32
51417;BME280;50158;51.528;6.982;2022-08-03T16:21:56;70330;;;36.27;29.17